sensor_id;sensor_type;location;lat;lon;timestamp;P1;durP1;ratioP1;P2;durP2;ratioP2
44452;SDS011;30155;52.164;21.236;2022-09-13T00:01:45;9.80;;;7.90;;
44452;SDS011;30155;52.164;21.236;2022-09-13T00:06:36;9.68;;;8.50;;
44452;SDS011;30155;52.164;21.236;2022-09-13T00:11:28;9.70;;;7.53;;
44452;SDS011;30155;52.164;21.236;2022-09-13T00:16:21;11.43;;;8.50;;
44452;SDS011;30155;52.164;21.236;2022-09-13T00:21:17;11.00;;;9.00;;
44452;SDS011;30155;52.164;21.236;2022-09-13T00:26:11;10.75;;;8.60;;
44452;SDS011;30155;52.164;21.236;2022-09-13T00:31:06;8.78;;;7.83;;
44452;SDS011;30155;52.164;21.236;2022-09-13T00:36:02;8.05;;;7.30;;
44452;SDS011;30155;52.164;21.236;2022-09-13T00:40:56;9.75;;;8.15;;
44452;SDS011;30155;52.164;21.236;2022-09-13T00:45:48;12.88;;;8.60;;
44452;SDS011;30155;52.164;21.236;2022-09-13T00:50:40;10.72;;;8.10;;
44452;SDS011;30155;52.164;21.236;2022-09-13T01:00:39;11.25;;;8.90;;
44452;SDS011;30155;52.164;21.236;2022-09-13T01:05:35;15.38;;;9.28;;
44452;SDS011;30155;52.164;21.236;2022-09-13T01:10:26;14.73;;;9.38;;
44452;SDS011;30155;52.164;21.236;2022-09-13T01:15:20;15.25;;;9.85;;
44452;SDS011;30155;52.164;21.236;2022-09-13T01:20:12;13.10;;;8.85;;
44452;SDS011;30155;52.164;21.236;2022-09-13T01:25:08;11.57;;;9.33;;
44452;SDS011;30155;52.164;21.236;2022-09-13T01:30:11;11.05;;;8.33;;
44452;SDS011;30155;52.164;21.236;2022-09-13T01:35:32;11.85;;;8.35;;
44452;SDS011;30155;52.164;21.236;2022-09-13T01:46:31;12.50;;;9.53;;
44452;SDS011;30155;52.164;21.236;2022-09-13T01:51:33;17.77;;;9.08;;
44452;SDS011;30155;52.164;21.236;2022-09-13T02:07:05;11.97;;;7.87;;
44452;SDS011;30155;52.164;21.236;2022-09-13T02:12:01;16.82;;;10.05;;
44452;SDS011;30155;52.164;21.236;2022-09-13T02:22:15;10.18;;;9.08;;
44452;SDS011;30155;52.164;21.236;2022-09-13T02:27:12;9.45;;;8.28;;
44452;SDS011;30155;52.164;21.236;2022-09-13T02:37:09;10.80;;;8.28;;
44452;SDS011;30155;52.164;21.236;2022-09-13T02:42:07;10.38;;;8.40;;
44452;SDS011;30155;52.164;21.236;2022-09-13T02:57:49;10.45;;;8.65;;
44452;SDS011;30155;52.164;21.236;2022-09-13T03:02:52;18.20;;;9.73;;
44452;SDS011;30155;52.164;21.236;2022-09-13T03:07:46;10.13;;;8.98;;
44452;SDS011;30155;52.164;21.236;2022-09-13T03:12:49;9.78;;;8.75;;
44452;SDS011;30155;52.164;21.236;2022-09-13T03:18:04;9.85;;;8.60;;
44452;SDS011;30155;52.164;21.236;2022-09-13T03:23:31;12.15;;;10.08;;
44452;SDS011;30155;52.164;21.236;2022-09-13T03:44:35;13.70;;;8.75;;
44452;SDS011;30155;52.164;21.236;2022-09-13T03:49:29;10.78;;;9.63;;
44452;SDS011;30155;52.164;21.236;2022-09-13T03:54:26;16.02;;;11.18;;
44452;SDS011;30155;52.164;21.236;2022-09-13T03:59:21;10.63;;;9.28;;
44452;SDS011;30155;52.164;21.236;2022-09-13T04:04:12;11.08;;;9.15;;
44452;SDS011;30155;52.164;21.236;2022-09-13T04:09:05;17.62;;;10.58;;
44452;SDS011;30155;52.164;21.236;2022-09-13T04:13:57;19.73;;;10.38;;
44452;SDS011;30155;52.164;21.236;2022-09-13T04:18:48;15.05;;;9.85;;
44452;SDS011;30155;52.164;21.236;2022-09-13T04:23:40;10.15;;;8.70;;
44452;SDS011;30155;52.164;21.236;2022-09-13T04:28:31;11.97;;;10.35;;
44452;SDS011;30155;52.164;21.236;2022-09-13T04:33:22;14.95;;;10.78;;
44452;SDS011;30155;52.164;21.236;2022-09-13T04:38:17;16.97;;;10.38;;
44452;SDS011;30155;52.164;21.236;2022-09-13T04:43:08;16.87;;;9.38;;
44452;SDS011;30155;52.164;21.236;2022-09-13T04:48:00;15.90;;;9.98;;
44452;SDS011;30155;52.164;21.236;2022-09-13T04:52:53;14.10;;;9.93;;
44452;SDS011;30155;52.164;21.236;2022-09-13T04:57:45;14.73;;;10.35;;
44452;SDS011;30155;52.164;21.236;2022-09-13T05:02:36;17.80;;;9.85;;
44452;SDS011;30155;52.164;21.236;2022-09-13T05:07:27;21.80;;;9.70;;
44452;SDS011;30155;52.164;21.236;2022-09-13T05:12:18;25.62;;;9.45;;
44452;SDS011;30155;52.164;21.236;2022-09-13T05:17:09;17.55;;;9.60;;
44452;SDS011;30155;52.164;21.236;2022-09-13T05:22:01;15.88;;;8.95;;
44452;SDS011;30155;52.164;21.236;2022-09-13T05:26:53;25.88;;;9.68;;
44452;SDS011;30155;52.164;21.236;2022-09-13T05:31:44;17.32;;;9.93;;
44452;SDS011;30155;52.164;21.236;2022-09-13T05:36:35;18.48;;;9.63;;
44452;SDS011;30155;52.164;21.236;2022-09-13T05:41:27;17.20;;;10.03;;
44452;SDS011;30155;52.164;21.236;2022-09-13T05:46:19;19.45;;;9.80;;
44452;SDS011;30155;52.164;21.236;2022-09-13T05:51:15;13.53;;;8.75;;
44452;SDS011;30155;52.164;21.236;2022-09-13T05:56:10;20.05;;;9.70;;
44452;SDS011;30155;52.164;21.236;2022-09-13T06:01:05;16.07;;;8.95;;
44452;SDS011;30155;52.164;21.236;2022-09-13T06:05:57;31.95;;;10.82;;
44452;SDS011;30155;52.164;21.236;2022-09-13T06:10:56;15.30;;;8.78;;
44452;SDS011;30155;52.164;21.236;2022-09-13T06:15:50;37.35;;;9.05;;
44452;SDS011;30155;52.164;21.236;2022-09-13T06:20:41;11.75;;;7.75;;
44452;SDS011;30155;52.164;21.236;2022-09-13T06:25:33;24.43;;;7.53;;
44452;SDS011;30155;52.164;21.236;2022-09-13T06:30:24;21.82;;;8.03;;
44452;SDS011;30155;52.164;21.236;2022-09-13T06:35:15;17.20;;;7.85;;
44452;SDS011;30155;52.164;21.236;2022-09-13T06:40:07;12.98;;;7.30;;
44452;SDS011;30155;52.164;21.236;2022-09-13T06:44:59;31.07;;;10.25;;
44452;SDS011;30155;52.164;21.236;2022-09-13T06:49:50;15.35;;;9.75;;
44452;SDS011;30155;52.164;21.236;2022-09-13T06:54:41;12.10;;;10.40;;
44452;SDS011;30155;52.164;21.236;2022-09-13T06:59:33;15.93;;;11.50;;
44452;SDS011;30155;52.164;21.236;2022-09-13T07:04:24;21.05;;;15.43;;
44452;SDS011;30155;52.164;21.236;2022-09-13T07:09:16;20.85;;;16.52;;
44452;SDS011;30155;52.164;21.236;2022-09-13T07:14:14;25.75;;;18.77;;
44452;SDS011;30155;52.164;21.236;2022-09-13T07:19:12;24.37;;;19.75;;
44452;SDS011;30155;52.164;21.236;2022-09-13T07:24:07;31.77;;;22.25;;
44452;SDS011;30155;52.164;21.236;2022-09-13T07:29:00;23.42;;;20.62;;
44452;SDS011;30155;52.164;21.236;2022-09-13T07:33:58;32.45;;;23.02;;
44452;SDS011;30155;52.164;21.236;2022-09-13T07:38:52;25.57;;;20.35;;
44452;SDS011;30155;52.164;21.236;2022-09-13T07:43:44;32.60;;;24.20;;
44452;SDS011;30155;52.164;21.236;2022-09-13T07:48:40;26.70;;;22.00;;
44452;SDS011;30155;52.164;21.236;2022-09-13T07:53:34;21.33;;;18.15;;
44452;SDS011;30155;52.164;21.236;2022-09-13T07:58:28;30.62;;;20.72;;
44452;SDS011;30155;52.164;21.236;2022-09-13T08:03:19;30.48;;;21.40;;
44452;SDS011;30155;52.164;21.236;2022-09-13T08:08:10;29.60;;;19.45;;
44452;SDS011;30155;52.164;21.236;2022-09-13T08:13:01;24.32;;;19.12;;
44452;SDS011;30155;52.164;21.236;2022-09-13T08:17:53;22.90;;;19.25;;
44452;SDS011;30155;52.164;21.236;2022-09-13T08:22:44;19.42;;;17.42;;
44452;SDS011;30155;52.164;21.236;2022-09-13T08:27:35;22.27;;;17.27;;
44452;SDS011;30155;52.164;21.236;2022-09-13T08:32:27;18.40;;;16.65;;
44452;SDS011;30155;52.164;21.236;2022-09-13T08:37:18;18.50;;;16.63;;
44452;SDS011;30155;52.164;21.236;2022-09-13T08:52:34;13.83;;;12.43;;
44452;SDS011;30155;52.164;21.236;2022-09-13T08:57:51;12.18;;;11.08;;
44452;SDS011;30155;52.164;21.236;2022-09-13T09:08:01;8.75;;;8.05;;
44452;SDS011;30155;52.164;21.236;2022-09-13T09:12:56;8.80;;;7.37;;
44452;SDS011;30155;52.164;21.236;2022-09-13T09:17:57;7.70;;;6.95;;
44452;SDS011;30155;52.164;21.236;2022-09-13T09:22:52;4.92;;;4.53;;
44452;SDS011;30155;52.164;21.236;2022-09-13T09:27:45;4.70;;;4.10;;
44452;SDS011;30155;52.164;21.236;2022-09-13T09:43:31;4.65;;;3.12;;
44452;SDS011;30155;52.164;21.236;2022-09-13T09:48:43;3.60;;;3.15;;
44452;SDS011;30155;52.164;21.236;2022-09-13T09:53:35;4.90;;;4.28;;
44452;SDS011;30155;52.164;21.236;2022-09-13T09:58:37;9.25;;;4.17;;
44452;SDS011;30155;52.164;21.236;2022-09-13T10:03:32;5.83;;;4.22;;
44452;SDS011;30155;52.164;21.236;2022-09-13T10:08:25;4.90;;;4.47;;
44452;SDS011;30155;52.164;21.236;2022-09-13T10:13:20;5.08;;;4.55;;
44452;SDS011;30155;52.164;21.236;2022-09-13T10:18:14;4.72;;;4.17;;
44452;SDS011;30155;52.164;21.236;2022-09-13T10:28:11;5.33;;;4.28;;
44452;SDS011;30155;52.164;21.236;2022-09-13T10:33:11;4.80;;;4.10;;
44452;SDS011;30155;52.164;21.236;2022-09-13T10:38:21;5.10;;;4.08;;
44452;SDS011;30155;52.164;21.236;2022-09-13T10:43:16;6.40;;;3.83;;
44452;SDS011;30155;52.164;21.236;2022-09-13T10:48:12;4.47;;;3.52;;
44452;SDS011;30155;52.164;21.236;2022-09-13T10:53:26;4.28;;;3.60;;
44452;SDS011;30155;52.164;21.236;2022-09-13T10:58:18;3.83;;;3.50;;
44452;SDS011;30155;52.164;21.236;2022-09-13T11:08:41;5.20;;;3.30;;
44452;SDS011;30155;52.164;21.236;2022-09-13T11:19:10;4.03;;;3.58;;
44452;SDS011;30155;52.164;21.236;2022-09-13T11:40:37;8.20;;;4.05;;
44452;SDS011;30155;52.164;21.236;2022-09-13T11:45:35;3.25;;;2.60;;
44452;SDS011;30155;52.164;21.236;2022-09-13T11:56:09;5.53;;;2.72;;
44452;SDS011;30155;52.164;21.236;2022-09-13T12:01:26;2.85;;;2.55;;
44452;SDS011;30155;52.164;21.236;2022-09-13T12:06:27;3.72;;;2.77;;
44452;SDS011;30155;52.164;21.236;2022-09-13T12:11:25;4.90;;;2.92;;
44452;SDS011;30155;52.164;21.236;2022-09-13T12:16:33;2.92;;;2.62;;
44452;SDS011;30155;52.164;21.236;2022-09-13T12:21:40;4.97;;;2.55;;
44452;SDS011;30155;52.164;21.236;2022-09-13T12:31:28;3.08;;;2.80;;
44452;SDS011;30155;52.164;21.236;2022-09-13T12:52:52;2.40;;;2.00;;
44452;SDS011;30155;52.164;21.236;2022-09-13T12:58:15;2.60;;;2.33;;
44452;SDS011;30155;52.164;21.236;2022-09-13T13:03:13;2.50;;;2.30;;
44452;SDS011;30155;52.164;21.236;2022-09-13T13:08:22;4.87;;;2.60;;
44452;SDS011;30155;52.164;21.236;2022-09-13T13:13:14;5.37;;;3.80;;
44452;SDS011;30155;52.164;21.236;2022-09-13T13:18:29;7.50;;;2.52;;
44452;SDS011;30155;52.164;21.236;2022-09-13T13:23:27;3.58;;;2.80;;
44452;SDS011;30155;52.164;21.236;2022-09-13T13:33:48;3.70;;;2.42;;
44452;SDS011;30155;52.164;21.236;2022-09-13T13:38:47;5.78;;;2.98;;
44452;SDS011;30155;52.164;21.236;2022-09-13T13:43:41;2.85;;;2.58;;
44452;SDS011;30155;52.164;21.236;2022-09-13T13:48:34;7.95;;;4.22;;
44452;SDS011;30155;52.164;21.236;2022-09-13T13:53:34;4.28;;;3.27;;
44452;SDS011;30155;52.164;21.236;2022-09-13T13:58:40;3.17;;;2.70;;
44452;SDS011;30155;52.164;21.236;2022-09-13T14:14:29;2.70;;;2.50;;
44452;SDS011;30155;52.164;21.236;2022-09-13T14:19:51;5.53;;;3.08;;
44452;SDS011;30155;52.164;21.236;2022-09-13T14:24:48;4.30;;;3.03;;
44452;SDS011;30155;52.164;21.236;2022-09-13T14:29:45;9.98;;;3.95;;
44452;SDS011;30155;52.164;21.236;2022-09-13T14:34:50;4.72;;;3.83;;
44452;SDS011;30155;52.164;21.236;2022-09-13T14:45:19;4.62;;;3.40;;
44452;SDS011;30155;52.164;21.236;2022-09-13T14:50:11;8.20;;;3.40;;
44452;SDS011;30155;52.164;21.236;2022-09-13T14:55:15;6.08;;;4.47;;
44452;SDS011;30155;52.164;21.236;2022-09-13T15:00:14;6.20;;;3.85;;
44452;SDS011;30155;52.164;21.236;2022-09-13T15:05:12;15.80;;;4.33;;
44452;SDS011;30155;52.164;21.236;2022-09-13T15:20:43;7.90;;;3.83;;
44452;SDS011;30155;52.164;21.236;2022-09-13T15:25:56;7.72;;;4.47;;
44452;SDS011;30155;52.164;21.236;2022-09-13T15:31:20;6.22;;;4.53;;
44452;SDS011;30155;52.164;21.236;2022-09-13T15:41:17;6.53;;;4.10;;
44452;SDS011;30155;52.164;21.236;2022-09-13T15:46:13;8.45;;;4.10;;
44452;SDS011;30155;52.164;21.236;2022-09-13T15:51:09;8.83;;;4.28;;
44452;SDS011;30155;52.164;21.236;2022-09-13T15:56:04;18.77;;;6.53;;
44452;SDS011;30155;52.164;21.236;2022-09-13T16:00:57;15.58;;;5.00;;
44452;SDS011;30155;52.164;21.236;2022-09-13T16:10:55;6.42;;;5.15;;
44452;SDS011;30155;52.164;21.236;2022-09-13T16:15:47;7.00;;;4.65;;
44452;SDS011;30155;52.164;21.236;2022-09-13T16:20:38;5.72;;;4.92;;
44452;SDS011;30155;52.164;21.236;2022-09-13T16:25:29;5.50;;;4.33;;
44452;SDS011;30155;52.164;21.236;2022-09-13T16:30:21;6.60;;;4.33;;
44452;SDS011;30155;52.164;21.236;2022-09-13T16:35:12;5.33;;;4.42;;
44452;SDS011;30155;52.164;21.236;2022-09-13T16:40:06;5.83;;;5.17;;
44452;SDS011;30155;52.164;21.236;2022-09-13T16:45:03;6.50;;;4.45;;
44452;SDS011;30155;52.164;21.236;2022-09-13T16:49:55;6.00;;;4.40;;
44452;SDS011;30155;52.164;21.236;2022-09-13T16:54:46;7.42;;;5.62;;
44452;SDS011;30155;52.164;21.236;2022-09-13T16:59:38;6.67;;;5.25;;
44452;SDS011;30155;52.164;21.236;2022-09-13T17:04:32;11.60;;;4.97;;
44452;SDS011;30155;52.164;21.236;2022-09-13T17:09:24;6.05;;;4.90;;
44452;SDS011;30155;52.164;21.236;2022-09-13T17:14:17;6.05;;;4.83;;
44452;SDS011;30155;52.164;21.236;2022-09-13T17:19:11;9.38;;;5.28;;
44452;SDS011;30155;52.164;21.236;2022-09-13T17:24:04;11.17;;;6.03;;
44452;SDS011;30155;52.164;21.236;2022-09-13T17:28:56;7.45;;;5.15;;
44452;SDS011;30155;52.164;21.236;2022-09-13T17:33:48;15.20;;;6.12;;
44452;SDS011;30155;52.164;21.236;2022-09-13T17:38:40;9.23;;;5.83;;
44452;SDS011;30155;52.164;21.236;2022-09-13T17:43:32;9.73;;;4.55;;
44452;SDS011;30155;52.164;21.236;2022-09-13T17:48:24;6.08;;;5.25;;
44452;SDS011;30155;52.164;21.236;2022-09-13T17:53:15;6.47;;;5.87;;
44452;SDS011;30155;52.164;21.236;2022-09-13T17:58:06;5.85;;;5.33;;
44452;SDS011;30155;52.164;21.236;2022-09-13T18:02:57;7.53;;;5.80;;
44452;SDS011;30155;52.164;21.236;2022-09-13T18:07:48;12.47;;;8.07;;
44452;SDS011;30155;52.164;21.236;2022-09-13T18:12:39;12.30;;;7.10;;
44452;SDS011;30155;52.164;21.236;2022-09-13T18:17:31;6.13;;;5.63;;
44452;SDS011;30155;52.164;21.236;2022-09-13T18:22:22;7.12;;;6.28;;
44452;SDS011;30155;52.164;21.236;2022-09-13T18:27:13;7.30;;;6.37;;
44452;SDS011;30155;52.164;21.236;2022-09-13T18:32:05;6.83;;;6.20;;
44452;SDS011;30155;52.164;21.236;2022-09-13T18:36:56;9.45;;;6.83;;
44452;SDS011;30155;52.164;21.236;2022-09-13T18:41:47;10.28;;;6.90;;
44452;SDS011;30155;52.164;21.236;2022-09-13T18:46:39;8.00;;;6.87;;
44452;SDS011;30155;52.164;21.236;2022-09-13T18:51:35;12.43;;;7.50;;
44452;SDS011;30155;52.164;21.236;2022-09-13T18:56:30;8.70;;;6.72;;
44452;SDS011;30155;52.164;21.236;2022-09-13T19:01:25;12.70;;;8.23;;
44452;SDS011;30155;52.164;21.236;2022-09-13T19:06:28;9.80;;;8.33;;
44452;SDS011;30155;52.164;21.236;2022-09-13T19:11:23;10.43;;;7.97;;
44452;SDS011;30155;52.164;21.236;2022-09-13T19:16:17;8.50;;;7.62;;
44452;SDS011;30155;52.164;21.236;2022-09-13T19:21:11;8.35;;;7.25;;
44452;SDS011;30155;52.164;21.236;2022-09-13T19:26:09;9.35;;;7.90;;
44452;SDS011;30155;52.164;21.236;2022-09-13T19:31:09;9.85;;;7.45;;
44452;SDS011;30155;52.164;21.236;2022-09-13T19:36:06;10.28;;;8.00;;
44452;SDS011;30155;52.164;21.236;2022-09-13T19:41:02;8.50;;;7.58;;
44452;SDS011;30155;52.164;21.236;2022-09-13T19:45:59;9.73;;;8.60;;
44452;SDS011;30155;52.164;21.236;2022-09-13T19:50:53;9.20;;;8.13;;
44452;SDS011;30155;52.164;21.236;2022-09-13T19:55:45;10.60;;;7.53;;
44452;SDS011;30155;52.164;21.236;2022-09-13T20:00:38;10.38;;;8.25;;
44452;SDS011;30155;52.164;21.236;2022-09-13T20:05:34;9.05;;;8.08;;
44452;SDS011;30155;52.164;21.236;2022-09-13T20:10:26;9.45;;;8.45;;
44452;SDS011;30155;52.164;21.236;2022-09-13T20:15:18;10.18;;;9.05;;
44452;SDS011;30155;52.164;21.236;2022-09-13T20:20:13;11.38;;;8.98;;
44452;SDS011;30155;52.164;21.236;2022-09-13T20:25:04;10.15;;;8.48;;
44452;SDS011;30155;52.164;21.236;2022-09-13T20:29:58;11.10;;;9.18;;
44452;SDS011;30155;52.164;21.236;2022-09-13T20:34:50;9.40;;;7.97;;
44452;SDS011;30155;52.164;21.236;2022-09-13T20:39:42;8.70;;;7.72;;
44452;SDS011;30155;52.164;21.236;2022-09-13T20:44:33;10.70;;;8.28;;
44452;SDS011;30155;52.164;21.236;2022-09-13T20:49:25;9.83;;;8.28;;
44452;SDS011;30155;52.164;21.236;2022-09-13T20:54:17;9.98;;;7.42;;
44452;SDS011;30155;52.164;21.236;2022-09-13T20:59:09;8.63;;;7.80;;
44452;SDS011;30155;52.164;21.236;2022-09-13T21:04:00;9.05;;;7.92;;
44452;SDS011;30155;52.164;21.236;2022-09-13T21:08:53;9.08;;;7.72;;
44452;SDS011;30155;52.164;21.236;2022-09-13T21:13:46;7.85;;;7.12;;
44452;SDS011;30155;52.164;21.236;2022-09-13T21:18:41;9.07;;;8.17;;
44452;SDS011;30155;52.164;21.236;2022-09-13T21:23:34;10.48;;;8.38;;
44452;SDS011;30155;52.164;21.236;2022-09-13T21:28:28;9.53;;;8.08;;
44452;SDS011;30155;52.164;21.236;2022-09-13T21:33:20;9.35;;;8.30;;
44452;SDS011;30155;52.164;21.236;2022-09-13T21:38:11;8.30;;;7.50;;
44452;SDS011;30155;52.164;21.236;2022-09-13T21:43:02;9.68;;;7.62;;
44452;SDS011;30155;52.164;21.236;2022-09-13T21:47:54;10.38;;;8.43;;
44452;SDS011;30155;52.164;21.236;2022-09-13T21:52:45;9.25;;;7.90;;
44452;SDS011;30155;52.164;21.236;2022-09-13T21:57:36;9.25;;;8.35;;
44452;SDS011;30155;52.164;21.236;2022-09-13T22:02:27;11.03;;;9.50;;
44452;SDS011;30155;52.164;21.236;2022-09-13T22:07:19;9.25;;;8.45;;
44452;SDS011;30155;52.164;21.236;2022-09-13T22:12:10;12.07;;;7.97;;
44452;SDS011;30155;52.164;21.236;2022-09-13T22:17:01;10.72;;;7.90;;
44452;SDS011;30155;52.164;21.236;2022-09-13T22:21:53;9.55;;;8.60;;
44452;SDS011;30155;52.164;21.236;2022-09-13T22:26:48;12.00;;;9.70;;
44452;SDS011;30155;52.164;21.236;2022-09-13T22:31:43;12.23;;;9.95;;
44452;SDS011;30155;52.164;21.236;2022-09-13T22:36:37;10.45;;;8.63;;
44452;SDS011;30155;52.164;21.236;2022-09-13T22:41:29;10.65;;;9.60;;
44452;SDS011;30155;52.164;21.236;2022-09-13T22:46:23;13.85;;;9.78;;
44452;SDS011;30155;52.164;21.236;2022-09-13T22:51:18;12.10;;;10.68;;
44452;SDS011;30155;52.164;21.236;2022-09-13T23:01:15;11.63;;;10.53;;
44452;SDS011;30155;52.164;21.236;2022-09-13T23:06:09;11.78;;;10.68;;
44452;SDS011;30155;52.164;21.236;2022-09-13T23:16:18;12.33;;;11.12;;
44452;SDS011;30155;52.164;21.236;2022-09-13T23:21:10;12.68;;;11.48;;
44452;SDS011;30155;52.164;21.236;2022-09-13T23:26:03;13.30;;;12.18;;
44452;SDS011;30155;52.164;21.236;2022-09-13T23:36:08;12.58;;;11.48;;
44452;SDS011;30155;52.164;21.236;2022-09-13T23:41:01;13.75;;;12.25;;
44452;SDS011;30155;52.164;21.236;2022-09-13T23:45:53;13.60;;;12.28;;
44452;SDS011;30155;52.164;21.236;2022-09-13T23:50:44;13.88;;;12.58;;
44452;SDS011;30155;52.164;21.236;2022-09-13T23:55:36;14.20;;;12.80;;
